createdAt,value
2019-04-14T00:00:51.371Z,5.97
2019-04-14T00:03:39.032Z,3.25
2019-04-14T00:06:09.577Z,6.25
2019-04-14T00:08:37.904Z,5.37
2019-04-14T00:11:08.223Z,4.33
2019-04-14T00:13:37.115Z,5.97
2019-04-14T00:16:05.545Z,5.33
2019-04-14T00:18:34.309Z,5.20
2019-04-14T00:21:04.352Z,4.25
2019-04-14T00:23:33.321Z,6.30
2019-04-14T00:26:40.181Z,6.80
2019-04-14T00:29:09.253Z,5.80
2019-04-14T00:31:39.117Z,5.42
2019-04-14T00:34:27.066Z,4.70
2019-04-14T00:37:09.883Z,5.47
2019-04-14T00:39:42.226Z,4.83
2019-04-14T00:42:25.625Z,5.75
2019-04-14T00:45:39.394Z,8.43
2019-04-14T00:48:07.521Z,6.75
2019-04-14T00:50:30.365Z,6.28
2019-04-14T00:52:59.141Z,6.20
2019-04-14T00:55:27.925Z,7.70
2019-04-14T00:57:57.275Z,5.15
2019-04-14T01:00:27.540Z,6.35
2019-04-14T01:02:56.493Z,5.37
2019-04-14T01:05:26.259Z,6.40
2019-04-14T01:07:55.029Z,6.92
2019-04-14T01:10:23.578Z,6.50
2019-04-14T01:12:53.840Z,5.25
2019-04-14T01:15:22.807Z,6.40
2019-04-14T01:17:52.782Z,5.72
2019-04-14T01:20:21.789Z,7.00
2019-04-14T01:22:51.015Z,7.50
2019-04-14T01:25:19.919Z,5.65
2019-04-14T01:27:49.568Z,7.12
2019-04-14T01:30:18.423Z,5.72
2019-04-14T01:33:09.835Z,6.05
2019-04-14T01:35:39.910Z,6.62
2019-04-14T01:38:08.801Z,7.10
2019-04-14T01:40:38.069Z,7.28
2019-04-14T01:43:08.013Z,7.40
2019-04-14T01:45:38.190Z,7.35
2019-04-14T01:48:08.340Z,8.73
2019-04-14T01:50:51.861Z,8.23
2019-04-14T01:53:33.551Z,7.35
2019-04-14T01:56:10.135Z,7.25
2019-04-14T01:58:46.864Z,7.08
2019-04-14T02:01:19.703Z,7.60
2019-04-14T02:03:49.757Z,8.25
2019-04-14T02:06:18.193Z,7.03
2019-04-14T02:08:47.940Z,8.53
2019-04-14T02:11:16.890Z,8.38
2019-04-14T02:13:46.475Z,6.45
2019-04-14T02:16:25.864Z,7.67
2019-04-14T02:18:45.497Z,8.33
2019-04-14T02:21:14.940Z,8.48
2019-04-14T02:23:45.319Z,7.47
2019-04-14T02:26:15.400Z,7.03
2019-04-14T02:28:44.430Z,6.87
2019-04-14T02:31:33.339Z,7.72
2019-04-14T02:34:12.377Z,8.08
2019-04-14T02:36:50.681Z,6.97
2019-04-14T02:39:15.575Z,7.37
2019-04-14T02:41:47.069Z,7.62
2019-04-14T02:44:12.213Z,8.75
2019-04-14T02:46:49.611Z,7.40
2019-04-14T02:49:11.149Z,9.15
2019-04-14T02:51:40.065Z,10.00
2019-04-14T02:54:13.424Z,9.00
2019-04-14T02:56:45.332Z,10.58
2019-04-14T02:59:13.098Z,9.50
2019-04-14T03:01:55.344Z,8.15
2019-04-14T03:04:18.831Z,9.15
2019-04-14T03:06:50.501Z,9.63
2019-04-14T03:11:48.946Z,7.28
2019-04-14T03:14:27.746Z,8.23
2019-04-14T03:17:16.172Z,7.80
2019-04-14T03:19:57.015Z,8.23
2019-04-14T03:22:32.954Z,8.83
2019-04-14T03:25:06.281Z,9.55
2019-04-14T03:30:51.674Z,10.25
2019-04-14T03:35:58.122Z,9.83
2019-04-14T03:40:25.896Z,7.90
2019-04-14T03:43:07.597Z,9.18
2019-04-14T03:45:35.731Z,7.87
2019-04-14T03:48:31.836Z,8.80
2019-04-14T03:50:29.245Z,9.03
2019-04-14T03:53:09.622Z,10.65
2019-04-14T03:55:17.344Z,9.33
2019-04-14T03:57:34.534Z,8.93
2019-04-14T04:00:05.216Z,10.50
2019-04-14T04:02:34.072Z,9.05
2019-04-14T04:05:04.134Z,9.18
2019-04-14T04:07:32.514Z,9.08
2019-04-14T04:10:07.123Z,10.15
2019-04-14T04:12:35.997Z,9.80
2019-04-14T04:15:06.096Z,9.90
2019-04-14T04:17:42.945Z,8.93
2019-04-14T04:20:34.897Z,8.95
2019-04-14T04:23:14.782Z,9.33
2019-04-14T04:26:08.951Z,9.03
2019-04-14T04:29:15.785Z,8.25
2019-04-14T04:32:10.080Z,8.73
2019-04-14T04:35:17.285Z,9.00
2019-04-14T04:38:07.376Z,11.40
2019-04-14T04:40:37.496Z,10.72
2019-04-14T04:43:06.045Z,11.03
2019-04-14T04:45:36.871Z,8.18
2019-04-14T04:48:06.689Z,10.20
2019-04-14T04:50:38.889Z,9.98
2019-04-14T04:53:08.977Z,8.50
2019-04-14T04:55:37.909Z,8.78
2019-04-14T04:58:07.779Z,8.20
2019-04-14T05:00:37.355Z,9.85
2019-04-14T05:03:06.254Z,9.35
2019-04-14T05:05:53.556Z,11.30
2019-04-14T05:08:22.437Z,11.50
2019-04-14T05:11:03.317Z,10.10
2019-04-14T05:13:36.227Z,9.30
2019-04-14T05:16:06.237Z,9.18
2019-04-14T05:18:35.561Z,9.20
2019-04-14T05:21:04.345Z,11.05
2019-04-14T05:23:34.135Z,11.33
2019-04-14T05:26:03.201Z,10.40
2019-04-14T05:28:33.060Z,10.78
2019-04-14T05:31:03.233Z,9.58
2019-04-14T05:33:32.185Z,9.43
2019-04-14T05:36:02.120Z,10.58
2019-04-14T05:38:33.760Z,11.75
2019-04-14T05:41:02.675Z,10.05
2019-04-14T05:43:41.527Z,9.58
2019-04-14T05:46:03.384Z,9.85
2019-04-14T05:49:44.256Z,9.78
2019-04-14T05:52:07.649Z,9.55
2019-04-14T05:55:08.677Z,10.53
2019-04-14T05:57:39.490Z,9.60
2019-04-14T06:00:12.456Z,11.45
2019-04-14T06:02:42.370Z,10.03
2019-04-14T06:05:13.003Z,10.72
2019-04-14T06:07:43.446Z,10.08
2019-04-14T06:10:13.456Z,10.68
2019-04-14T06:12:43.493Z,10.38
2019-04-14T06:15:13.455Z,10.10
2019-04-14T06:17:43.329Z,11.38
2019-04-14T06:20:13.471Z,13.32
2019-04-14T06:22:43.458Z,10.82
2019-04-14T06:25:13.495Z,10.80
2019-04-14T06:27:43.576Z,11.83
2019-04-14T06:30:31.481Z,11.48
2019-04-14T06:33:04.869Z,10.55
2019-04-14T06:36:06.011Z,11.03
2019-04-14T06:38:38.262Z,11.28
2019-04-14T06:41:09.993Z,10.58
2019-04-14T06:43:48.792Z,11.68
2019-04-14T06:46:11.461Z,11.43
2019-04-14T06:48:41.318Z,12.13
2019-04-14T06:51:11.203Z,11.88
2019-04-14T06:53:41.096Z,11.80
2019-04-14T06:56:10.994Z,12.07
2019-04-14T06:58:41.113Z,11.43
2019-04-14T07:01:10.957Z,12.37
2019-04-14T07:03:40.769Z,9.75
2019-04-14T07:06:10.684Z,10.75
2019-04-14T07:08:40.544Z,12.75
2019-04-14T07:11:10.131Z,11.28
2019-04-14T07:13:40.121Z,10.58
2019-04-14T07:16:09.657Z,11.55
2019-04-14T07:18:39.601Z,10.70
2019-04-14T07:21:10.544Z,11.28
2019-04-14T07:23:40.365Z,11.60
2019-04-14T07:26:10.317Z,12.58
2019-04-14T07:28:40.295Z,10.80
2019-04-14T07:31:38.237Z,10.75
2019-04-14T07:34:36.181Z,10.75
2019-04-14T07:37:19.765Z,10.63
2019-04-14T07:40:08.655Z,11.33
2019-04-14T07:43:00.565Z,12.03
2019-04-14T07:45:37.587Z,16.85
2019-04-14T07:48:12.122Z,10.58
2019-04-14T07:50:56.335Z,11.33
2019-04-14T07:53:44.518Z,11.63
2019-04-14T07:56:27.196Z,10.70
2019-04-14T07:59:05.447Z,10.57
2019-04-14T08:01:52.977Z,10.23
2019-04-14T08:04:28.214Z,10.73
2019-04-14T08:06:59.302Z,10.87
2019-04-14T08:09:29.109Z,8.93
2019-04-14T08:11:59.564Z,8.03
2019-04-14T08:14:29.516Z,9.47
2019-04-14T08:16:59.333Z,10.07
2019-04-14T08:19:28.704Z,9.27
2019-04-14T08:21:58.472Z,10.27
2019-04-14T08:24:28.425Z,9.30
2019-04-14T08:26:58.263Z,9.30
2019-04-14T08:29:27.629Z,9.77
2019-04-14T08:31:57.354Z,8.97
2019-04-14T08:34:26.745Z,9.63
2019-04-14T08:36:56.446Z,8.87
2019-04-14T08:39:25.819Z,9.57
2019-04-14T08:42:11.212Z,9.57
2019-04-14T08:44:45.535Z,7.80
2019-04-14T08:47:46.339Z,8.87
2019-04-14T08:50:40.998Z,8.37
2019-04-14T08:53:14.122Z,8.27
2019-04-14T08:56:01.765Z,9.33
2019-04-14T08:58:37.137Z,8.57
2019-04-14T09:01:19.141Z,8.63
2019-04-14T09:04:19.812Z,8.73
2019-04-14T09:07:02.006Z,8.13
2019-04-14T09:09:38.622Z,8.83
2019-04-14T09:12:16.617Z,8.30
2019-04-14T09:14:56.400Z,6.13
2019-04-14T09:17:19.206Z,7.67
2019-04-14T09:19:48.685Z,8.13
2019-04-14T09:22:17.985Z,7.63
2019-04-14T09:24:47.858Z,8.47
2019-04-14T09:27:17.262Z,8.47
2019-04-14T09:29:47.478Z,8.53
2019-04-14T09:32:18.680Z,7.77
2019-04-14T09:34:48.087Z,8.93
2019-04-14T09:37:17.980Z,8.43
2019-04-14T09:39:48.660Z,7.70
2019-04-14T09:42:18.068Z,7.97
2019-04-14T09:44:47.297Z,7.77
2019-04-14T09:47:17.029Z,7.50
2019-04-14T09:49:46.829Z,8.10
2019-04-14T09:52:16.205Z,7.10
2019-04-14T09:54:45.961Z,8.57
2019-04-14T09:57:15.850Z,7.40
2019-04-14T09:59:45.659Z,5.33
2019-04-14T10:02:15.021Z,6.83
2019-04-14T10:04:44.877Z,8.60
2019-04-14T10:07:14.694Z,7.03
2019-04-14T10:09:44.586Z,6.10
2019-04-14T10:12:14.475Z,7.27
2019-04-14T10:14:43.831Z,7.63
2019-04-14T10:17:13.579Z,7.47
2019-04-14T10:19:43.422Z,6.53
2019-04-14T10:22:13.233Z,6.67
2019-04-14T10:24:43.196Z,6.93
2019-04-14T10:27:12.821Z,6.70
2019-04-14T10:29:42.570Z,6.57
2019-04-14T10:32:12.398Z,6.57
2019-04-14T10:34:41.922Z,5.97
2019-04-14T10:37:11.157Z,6.57
2019-04-14T10:39:40.957Z,7.30
2019-04-14T10:42:10.774Z,7.10
2019-04-14T10:44:40.585Z,7.17
2019-04-14T10:47:10.433Z,6.33
2019-04-14T10:49:40.661Z,7.00
2019-04-14T10:52:10.024Z,4.43
2019-04-14T10:54:39.254Z,6.00
2019-04-14T10:57:09.025Z,6.83
2019-04-14T10:59:38.878Z,7.50
2019-04-14T11:02:08.801Z,6.80
2019-04-14T11:04:38.669Z,7.10
2019-04-14T11:07:11.417Z,6.47
2019-04-14T11:09:41.216Z,7.30
2019-04-14T11:12:11.117Z,7.57
2019-04-14T11:14:40.937Z,6.33
2019-04-14T11:17:10.757Z,6.57
2019-04-14T11:19:40.597Z,4.73
2019-04-14T11:22:10.431Z,6.10
2019-04-14T11:24:40.313Z,7.07
2019-04-14T11:27:10.129Z,5.87
2019-04-14T11:29:39.945Z,5.70
2019-04-14T11:32:31.481Z,7.47
2019-04-14T11:35:16.473Z,5.97
2019-04-14T11:38:11.581Z,6.43
2019-04-14T11:40:44.247Z,6.17
2019-04-14T11:43:13.651Z,6.00
2019-04-14T11:45:42.886Z,6.40
2019-04-14T11:48:12.194Z,4.97
2019-04-14T11:50:41.513Z,7.13
2019-04-14T11:53:11.194Z,6.27
2019-04-14T11:55:42.906Z,6.77
2019-04-14T11:58:12.333Z,6.87
2019-04-14T12:01:10.901Z,6.73
2019-04-14T12:03:59.253Z,7.20
2019-04-14T12:07:00.470Z,6.37
2019-04-14T12:09:33.496Z,7.03
2019-04-14T12:12:04.482Z,7.17
2019-04-14T12:14:33.850Z,7.10
2019-04-14T12:17:03.864Z,7.00
2019-04-14T12:19:33.294Z,6.47
2019-04-14T12:22:08.576Z,7.47
2019-04-14T12:24:35.068Z,6.80
2019-04-14T12:27:05.068Z,7.00
2019-04-14T12:29:34.931Z,6.17
2019-04-14T12:32:04.565Z,7.43
2019-04-14T12:34:34.354Z,6.57
2019-04-14T12:37:04.434Z,6.17
2019-04-14T12:39:33.809Z,5.30
2019-04-14T12:42:28.467Z,6.37
2019-04-14T12:45:15.920Z,6.17
2019-04-14T12:48:00.862Z,6.13
2019-04-14T12:50:44.127Z,6.57
2019-04-14T12:53:14.011Z,7.57
2019-04-14T12:55:43.881Z,6.47
2019-04-14T12:58:14.946Z,6.73
2019-04-14T13:00:54.521Z,6.80
2019-04-14T13:03:25.454Z,6.43
2019-04-14T13:05:55.291Z,7.17
2019-04-14T13:08:25.138Z,6.33
2019-04-14T13:10:55.053Z,5.87
2019-04-14T13:13:24.865Z,6.37
2019-04-14T13:15:54.782Z,7.20
2019-04-14T13:18:24.593Z,6.80
2019-04-14T13:20:54.497Z,6.43
2019-04-14T13:23:24.322Z,6.07
2019-04-14T13:25:54.502Z,6.20
2019-04-14T13:28:24.382Z,6.90
2019-04-14T13:30:54.184Z,5.90
2019-04-14T13:33:24.021Z,5.33
2019-04-14T13:35:53.842Z,5.50
2019-04-14T13:38:23.977Z,6.57
2019-04-14T13:40:53.413Z,7.07
2019-04-14T13:43:23.111Z,6.70
2019-04-14T13:45:52.984Z,6.03
2019-04-14T13:48:22.832Z,5.00
2019-04-14T13:50:52.877Z,6.63
2019-04-14T13:53:22.771Z,6.40
2019-04-14T13:55:52.850Z,6.53
2019-04-14T13:58:22.663Z,5.37
2019-04-14T14:00:52.546Z,6.40
2019-04-14T14:03:22.434Z,5.53
2019-04-14T14:05:52.322Z,6.37
2019-04-14T14:08:21.691Z,6.40
2019-04-14T14:10:54.933Z,5.20
2019-04-14T14:13:39.530Z,7.47
2019-04-14T14:16:26.990Z,5.50
2019-04-14T14:19:00.821Z,5.93
2019-04-14T14:21:53.150Z,5.93
2019-04-14T14:24:40.734Z,5.90
2019-04-14T14:27:10.824Z,6.20
2019-04-14T14:29:40.177Z,6.03
2019-04-14T14:32:16.869Z,5.30
2019-04-14T14:34:46.613Z,6.17
2019-04-14T14:37:16.418Z,6.20
2019-04-14T14:39:45.789Z,6.07
2019-04-14T14:42:15.013Z,5.87
2019-04-14T14:44:49.396Z,5.57
2019-04-14T14:47:21.945Z,6.07
2019-04-14T14:50:26.041Z,5.67
2019-04-14T14:52:55.930Z,6.57
2019-04-14T14:55:25.309Z,5.77
2019-04-14T14:57:54.546Z,5.50
2019-04-14T15:00:34.033Z,5.97
2019-04-14T15:03:03.423Z,6.37
2019-04-14T15:05:32.738Z,4.93
2019-04-14T15:08:02.273Z,5.50
2019-04-14T15:10:31.503Z,6.53
2019-04-14T15:13:00.730Z,5.00
2019-04-14T15:15:29.971Z,6.53
2019-04-14T15:17:59.444Z,5.37
2019-04-14T15:20:28.685Z,5.47
2019-04-14T15:22:58.419Z,5.70
2019-04-14T15:25:28.386Z,5.10
2019-04-14T15:27:58.253Z,5.73
2019-04-14T15:30:28.073Z,6.00
2019-04-14T15:32:57.885Z,5.70
2019-04-14T15:35:27.762Z,5.20
2019-04-14T15:37:57.668Z,6.23
2019-04-14T15:40:27.501Z,6.20
2019-04-14T15:42:57.625Z,5.50
2019-04-14T15:45:27.457Z,5.70
2019-04-14T15:47:57.273Z,5.07
2019-04-14T15:50:27.173Z,5.40
2019-04-14T15:52:57.085Z,5.53
2019-04-14T15:55:26.981Z,5.23
2019-04-14T15:58:02.235Z,5.37
2019-04-14T16:00:57.250Z,5.00
2019-04-14T16:03:44.896Z,5.53
2019-04-14T16:06:51.709Z,5.40
2019-04-14T16:09:44.979Z,5.40
2019-04-14T16:12:39.634Z,5.43
2019-04-14T16:15:21.677Z,6.13
2019-04-14T16:18:02.607Z,5.47
2019-04-14T16:20:35.694Z,6.57
2019-04-14T16:23:06.344Z,5.63
2019-04-14T16:25:48.276Z,6.10
2019-04-14T16:28:35.921Z,5.77
2019-04-14T16:31:17.691Z,5.87
2019-04-14T16:34:05.383Z,5.70
2019-04-14T16:36:35.542Z,5.43
2019-04-14T16:39:06.618Z,5.53
2019-04-14T16:41:36.078Z,5.60
2019-04-14T16:44:05.456Z,5.70
2019-04-14T16:46:35.162Z,6.60
2019-04-14T16:49:05.562Z,6.43
2019-04-14T16:51:41.901Z,5.57
2019-04-14T16:54:25.229Z,5.40
2019-04-14T16:57:16.953Z,6.77
2019-04-14T16:59:46.771Z,6.37
2019-04-14T17:02:16.598Z,6.30
2019-04-14T17:04:46.428Z,5.87
2019-04-14T17:07:15.783Z,5.97
2019-04-14T17:09:45.557Z,6.00
2019-04-14T17:12:15.379Z,5.73
2019-04-14T17:15:04.368Z,7.20
2019-04-14T17:18:02.240Z,5.27
2019-04-14T17:21:09.339Z,6.03
2019-04-14T17:23:43.149Z,5.77
2019-04-14T17:26:35.164Z,5.40
2019-04-14T17:29:33.232Z,6.20
2019-04-14T17:32:31.416Z,5.33
2019-04-14T17:35:21.846Z,6.37
2019-04-14T17:38:16.908Z,6.83
2019-04-14T17:40:52.358Z,6.33
2019-04-14T17:43:34.366Z,5.73
2019-04-14T17:46:26.374Z,7.20
2019-04-14T17:49:21.112Z,6.63
2019-04-14T17:52:09.260Z,6.00
2019-04-14T17:54:58.832Z,6.50
2019-04-14T17:57:46.573Z,6.37
2019-04-14T18:00:24.461Z,7.30
2019-04-14T18:03:04.099Z,6.03
2019-04-14T18:05:43.779Z,6.33
2019-04-14T18:08:41.633Z,6.33
2019-04-14T18:11:17.472Z,6.70
2019-04-14T18:13:58.029Z,5.27
2019-04-14T18:16:46.934Z,6.37
2019-04-14T18:19:35.829Z,6.43
2019-04-14T18:22:05.289Z,6.33
2019-04-14T18:24:42.393Z,5.80
2019-04-14T18:27:06.914Z,6.50
2019-04-14T18:29:45.302Z,6.57
2019-04-14T18:32:32.006Z,6.77
2019-04-14T18:35:07.009Z,6.73
2019-04-14T18:38:05.326Z,5.87
2019-04-14T18:41:00.389Z,6.70
2019-04-14T18:43:40.492Z,6.53
2019-04-14T18:46:25.283Z,6.47
2019-04-14T18:49:09.739Z,5.43
2019-04-14T18:51:48.057Z,6.40
2019-04-14T18:54:32.402Z,6.03
2019-04-14T18:57:09.223Z,6.00
2019-04-14T19:00:03.857Z,5.80
2019-04-14T19:02:33.693Z,6.37
2019-04-14T19:05:03.061Z,6.57
2019-04-14T19:07:32.298Z,5.63
2019-04-14T19:10:01.534Z,4.70
2019-04-14T19:12:48.710Z,5.70
2019-04-14T19:15:34.009Z,6.70
2019-04-14T19:18:11.201Z,5.43
2019-04-14T19:20:43.669Z,5.13
2019-04-14T19:23:13.434Z,5.90
2019-04-14T19:25:42.807Z,5.30
2019-04-14T19:28:12.497Z,5.00
2019-04-14T19:30:42.382Z,5.27
2019-04-14T19:33:12.197Z,5.27
2019-04-14T19:35:41.655Z,5.70
2019-04-14T19:38:10.897Z,6.27
2019-04-14T19:40:40.138Z,5.73
2019-04-14T19:43:09.910Z,6.07
2019-04-14T19:45:39.718Z,6.13
2019-04-14T19:48:09.693Z,4.67
2019-04-14T19:50:39.069Z,5.77
2019-04-14T19:53:08.765Z,5.67
2019-04-14T19:55:38.578Z,6.50
2019-04-14T19:58:08.416Z,6.07
2019-04-14T20:00:38.482Z,6.33
2019-04-14T20:03:08.332Z,6.43
2019-04-14T20:05:40.478Z,6.27
2019-04-14T20:08:10.306Z,6.67
2019-04-14T20:10:40.113Z,5.73
2019-04-14T20:13:09.987Z,5.50
2019-04-14T20:15:57.363Z,6.97
2019-04-14T20:18:34.838Z,7.40
2019-04-14T20:21:21.902Z,5.93
2019-04-14T20:23:56.989Z,6.67
2019-04-14T20:26:44.874Z,5.87
2019-04-14T20:29:18.029Z,6.87
2019-04-14T20:32:09.975Z,8.10
2019-04-14T20:34:39.982Z,9.23
2019-04-14T20:37:09.865Z,9.93
2019-04-14T20:39:39.455Z,7.37
2019-04-14T20:42:09.405Z,6.37
2019-04-14T20:44:39.325Z,5.60
2019-04-14T20:47:10.130Z,9.23
2019-04-14T20:49:40.042Z,9.37
2019-04-14T20:52:10.061Z,12.20
2019-04-14T20:54:39.425Z,6.80
2019-04-14T20:57:09.181Z,6.97
2019-04-14T20:59:39.081Z,6.27
2019-04-14T21:02:46.346Z,6.53
2019-04-14T21:05:34.108Z,5.70
2019-04-14T21:08:22.035Z,5.67
2019-04-14T21:10:55.393Z,6.00
2019-04-14T21:13:39.823Z,5.65
2019-04-14T21:16:37.789Z,6.20
2019-04-14T21:19:35.517Z,5.58
2019-04-14T21:22:11.526Z,5.53
2019-04-14T21:24:48.193Z,7.45
2019-04-14T21:27:29.045Z,7.28
2019-04-14T21:30:21.030Z,6.65
2019-04-14T21:32:56.764Z,7.05
2019-04-14T21:35:48.316Z,5.58
2019-04-14T21:38:36.768Z,5.62
2019-04-14T21:41:25.641Z,5.25
2019-04-14T21:43:54.998Z,4.85
2019-04-14T21:46:24.250Z,6.60
2019-04-14T21:48:53.499Z,5.30
2019-04-14T21:51:25.037Z,6.17
2019-04-14T21:53:54.930Z,6.20
2019-04-14T21:56:26.942Z,6.10
2019-04-14T21:59:06.803Z,5.70
2019-04-14T22:01:54.840Z,5.55
2019-04-14T22:04:50.218Z,5.70
2019-04-14T22:07:37.804Z,5.40
2019-04-14T22:10:19.832Z,6.08
2019-04-14T22:12:49.685Z,6.22
2019-04-14T22:15:19.562Z,5.72
2019-04-14T22:17:48.922Z,5.08
2019-04-14T22:20:18.614Z,5.87
2019-04-14T22:22:48.505Z,6.50
2019-04-14T22:25:18.562Z,5.47
2019-04-14T22:27:48.478Z,5.67
2019-04-14T22:30:18.353Z,6.67
2019-04-14T22:32:48.186Z,6.40
2019-04-14T22:35:17.541Z,6.28
2019-04-14T22:37:47.238Z,6.05
2019-04-14T22:40:17.223Z,5.17
2019-04-14T22:42:47.045Z,5.62
2019-04-14T22:45:16.479Z,5.25
2019-04-14T22:47:46.266Z,5.62
2019-04-14T22:50:16.155Z,5.85
2019-04-14T22:52:45.525Z,5.90
2019-04-14T22:55:15.361Z,5.62
2019-04-14T22:57:45.261Z,5.58
2019-04-14T23:00:32.895Z,7.45
2019-04-14T23:03:24.873Z,6.53
2019-04-14T23:06:03.417Z,7.28
2019-04-14T23:08:44.236Z,6.10
2019-04-14T23:11:32.865Z,4.92
2019-04-14T23:14:21.361Z,6.20
2019-04-14T23:17:12.473Z,5.47
2019-04-14T23:19:46.458Z,7.53
2019-04-14T23:22:35.342Z,7.03
2019-04-14T23:25:05.889Z,5.78
2019-04-14T23:27:35.729Z,6.90
2019-04-14T23:30:06.034Z,5.97
2019-04-14T23:32:35.403Z,5.87
2019-04-14T23:35:05.717Z,6.22
2019-04-14T23:37:35.161Z,5.47
2019-04-14T23:40:05.389Z,5.40
2019-04-14T23:42:35.462Z,5.80
2019-04-14T23:45:06.422Z,5.15
2019-04-14T23:47:35.829Z,5.67
2019-04-14T23:50:05.755Z,4.80
2019-04-14T23:52:35.553Z,3.92
2019-04-14T23:55:05.849Z,5.72
2019-04-14T23:57:35.747Z,4.90
